Time;durP1;ratioP1;P1;durP2;ratioP2;P2;SDS_P1;SDS_P2;PMS_P1;PMS_P2;Temp;Humidity;BMP_temperature;BMP_pressure;BME280_temperature;BME280_humidity;BME280_pressure;Samples;Min_cycle;Max_cycle;Signal;HPM_P1;HPM_P2
2023/06/11 00:01:14;;;;;;;5.00;4.80;;;22.80;47.10;;;;;;5035757;28;20268;-77
2023/06/11 00:03:42;;;;;;;4.70;4.50;;;22.80;47.10;;;;;;5038286;28;20233;-77
2023/06/11 00:06:10;;;;;;;5.10;4.90;;;22.80;47.10;;;;;;5035654;28;21064;-77
2023/06/11 00:08:36;;;;;;;4.97;4.77;;;22.80;47.10;;;;;;5039268;28;20888;-78
2023/06/11 00:11:02;;;;;;;4.83;4.63;;;22.80;47.10;;;;;;5035511;28;20491;-77
2023/06/11 00:13:28;;;;;;;4.97;4.77;;;22.80;47.10;;;;;;5038745;28;20221;-78
2023/06/11 00:15:54;;;;;;;4.57;4.37;;;22.80;47.20;;;;;;5037928;28;20728;-77
2023/06/11 00:18:20;;;;;;;4.87;4.67;;;22.80;47.10;;;;;;5039404;28;21080;-70
2023/06/11 00:20:46;;;;;;;4.73;4.53;;;22.80;47.10;;;;;;5038349;28;20525;-78
2023/06/11 00:23:11;;;;;;;4.80;4.60;;;22.80;47.90;;;;;;5037030;28;20275;-78
2023/06/11 00:25:37;;;;;;;4.97;4.77;;;22.80;47.10;;;;;;5030008;28;20584;-78
2023/06/11 00:28:03;;;;;;;4.93;4.73;;;22.80;47.10;;;;;;5037498;28;20889;-78
2023/06/11 00:30:29;;;;;;;4.53;4.23;;;22.80;47.10;;;;;;5037986;28;20268;-78
2023/06/11 00:32:55;;;;;;;4.60;4.33;;;22.80;47.10;;;;;;5037464;28;20238;-77
2023/06/11 00:35:20;;;;;;;5.13;4.90;;;22.80;47.10;;;;;;5033742;28;20597;-77
2023/06/11 00:37:47;;;;;;;5.03;4.83;;;22.80;47.10;;;;;;5036025;28;20218;-78
2023/06/11 00:40:13;;;;;;;5.03;4.83;;;22.80;47.10;;;;;;5035265;28;20225;-77
2023/06/11 00:42:40;;;;;;;5.10;4.90;;;22.80;47.10;;;;;;5037192;28;20465;-77
2023/06/11 00:45:06;;;;;;;4.33;4.13;;;22.80;47.10;;;;;;5038216;28;20666;-78
2023/06/11 00:47:33;;;;;;;4.63;4.43;;;22.80;47.10;;;;;;5030668;28;20538;-78
2023/06/11 00:50:00;;;;;;;4.97;4.67;;;22.80;47.20;;;;;;5038348;28;20479;-77
2023/06/11 00:52:26;;;;;;;5.00;4.80;;;22.80;47.10;;;;;;5034728;28;20458;-77
2023/06/11 00:54:52;;;;;;;4.73;4.53;;;22.80;47.10;;;;;;5034081;28;21072;-77
2023/06/11 00:57:22;;;;;;;5.23;4.93;;;22.80;47.10;;;;;;5039736;28;20468;-77
2023/06/11 00:59:50;;;;;;;5.20;5.00;;;22.80;47.10;;;;;;5036753;28;20441;-78
2023/06/11 01:02:37;;;;;;;4.77;4.50;;;22.80;47.10;;;;;;5039650;28;20930;-78
2023/06/11 01:05:04;;;;;;;4.70;4.50;;;22.80;47.20;;;;;;5033467;28;20525;-77
2023/06/11 01:07:41;;;;;;;4.97;4.77;;;22.80;47.10;;;;;;5038461;28;20463;-77
2023/06/11 01:10:07;;;;;;;4.80;4.50;;;22.80;47.10;;;;;;5035314;28;20463;-78
2023/06/11 01:12:32;;;;;;;5.17;4.97;;;22.80;47.10;;;;;;5038715;28;20473;-78
2023/06/11 01:14:58;;;;;;;4.63;4.43;;;22.80;47.20;;;;;;5033856;28;20521;-77
2023/06/11 01:17:54;;;;;;;4.70;4.50;;;22.80;47.10;;;;;;5034228;28;20217;-78
2023/06/11 01:20:41;;;;;;;5.00;4.80;;;22.80;47.10;;;;;;5036891;28;20248;-74
2023/06/11 01:23:41;;;;;;;4.60;4.30;;;22.80;47.10;;;;;;5034949;28;20538;-78
2023/06/11 01:26:18;;;;;;;4.67;4.47;;;22.80;47.10;;;;;;5029973;28;20447;-77
2023/06/11 01:28:54;;;;;;;6.53;5.27;;;22.80;47.10;;;;;;5036563;28;20443;-78
2023/06/11 01:31:21;;;;;;;4.90;4.70;;;22.80;47.10;;;;;;5023652;28;20448;-75
2023/06/11 01:33:47;;;;;;;5.20;5.00;;;22.80;47.10;;;;;;5027448;28;20436;-77
2023/06/11 01:36:14;;;;;;;5.10;4.90;;;22.80;47.10;;;;;;5032657;28;20451;-78
2023/06/11 01:38:44;;;;;;;4.70;4.50;;;22.80;47.20;;;;;;5032871;28;20217;-78
2023/06/11 01:41:13;;;;;;;5.10;4.90;;;22.80;47.10;;;;;;5033980;28;20937;-78
2023/06/11 01:43:40;;;;;;;4.80;4.60;;;22.80;47.10;;;;;;5039001;28;20470;-78
2023/06/11 01:46:06;;;;;;;4.83;4.63;;;22.80;47.10;;;;;;5037391;28;20549;-78
2023/06/11 01:48:32;;;;;;;4.93;4.73;;;22.80;47.10;;;;;;5033691;28;20612;-78
2023/06/11 01:50:58;;;;;;;5.20;5.00;;;22.80;47.10;;;;;;5037869;28;21077;-78
2023/06/11 01:53:24;;;;;;;4.40;4.20;;;22.80;47.10;;;;;;5035751;28;20447;-78
2023/06/11 01:55:50;;;;;;;4.57;4.37;;;22.80;47.10;;;;;;5033594;28;20237;-78
2023/06/11 01:58:18;;;;;;;4.97;4.77;;;22.80;47.10;;;;;;5036841;28;20463;-78
2023/06/11 02:00:44;;;;;;;5.17;4.97;;;22.80;47.10;;;;;;5034751;28;20303;-78
2023/06/11 02:03:09;;;;;;;4.57;4.37;;;22.80;47.10;;;;;;5035682;28;21460;-78
2023/06/11 02:05:35;;;;;;;4.87;4.67;;;22.80;47.10;;;;;;5031742;28;20222;-78
2023/06/11 02:08:01;;;;;;;5.20;5.00;;;22.80;47.10;;;;;;5023695;28;20238;-78
2023/06/11 02:10:26;;;;;;;5.27;4.97;;;22.80;47.10;;;;;;5034682;28;20399;-78
2023/06/11 02:12:52;;;;;;;5.13;4.93;;;22.80;47.10;;;;;;5036582;28;20250;-78
2023/06/11 02:15:18;;;;;;;4.30;4.10;;;22.80;47.10;;;;;;5039796;28;20234;-78
2023/06/11 02:17:44;;;;;;;4.87;4.57;;;22.80;47.10;;;;;;5040010;28;20225;-78
2023/06/11 02:20:10;;;;;;;4.77;4.57;;;22.80;47.10;;;;;;5037597;28;20900;-78
2023/06/11 02:22:35;;;;;;;4.63;4.43;;;22.80;47.10;;;;;;5035528;28;20229;-78
2023/06/11 02:25:01;;;;;;;5.30;5.00;;;22.80;47.10;;;;;;5038812;28;20211;-78
2023/06/11 02:27:27;;;;;;;5.10;4.80;;;22.80;47.10;;;;;;5039308;28;20305;-78
2023/06/11 02:29:52;;;;;;;4.80;4.60;;;22.80;47.10;;;;;;5038933;28;20596;-78
2023/06/11 02:32:18;;;;;;;5.50;5.20;;;22.80;47.10;;;;;;5041478;28;20287;-78
2023/06/11 02:34:44;;;;;;;4.70;4.50;;;22.80;47.20;;;;;;5037668;28;20580;-78
2023/06/11 02:37:09;;;;;;;4.90;4.70;;;22.70;47.10;;;;;;5039023;28;20583;-78
2023/06/11 02:39:35;;;;;;;5.17;4.97;;;22.80;47.20;;;;;;5038231;28;20280;-78
2023/06/11 02:42:00;;;;;;;4.87;4.67;;;22.80;47.10;;;;;;5036523;28;20273;-78
2023/06/11 02:44:26;;;;;;;4.93;4.73;;;22.80;47.10;;;;;;5035284;28;20308;-78
2023/06/11 02:46:51;;;;;;;5.30;5.10;;;22.80;47.10;;;;;;5040845;28;20237;-77
2023/06/11 02:49:17;;;;;;;5.10;4.90;;;22.80;47.10;;;;;;5040954;28;20210;-78
2023/06/11 02:51:42;;;;;;;5.00;4.80;;;22.80;47.10;;;;;;5039520;28;20590;-78
2023/06/11 02:54:08;;;;;;;5.73;5.50;;;22.70;47.10;;;;;;5036330;28;20238;-78
2023/06/11 02:56:34;;;;;;;4.90;4.70;;;22.70;47.10;;;;;;5036916;28;20261;-78
2023/06/11 02:58:59;;;;;;;4.73;4.53;;;22.80;47.10;;;;;;5041534;28;20233;-78
2023/06/11 03:01:25;;;;;;;5.00;4.80;;;22.80;47.10;;;;;;5036666;28;20305;-78
2023/06/11 03:03:51;;;;;;;4.90;4.70;;;22.70;47.10;;;;;;5041798;28;22315;-78
2023/06/11 03:06:16;;;;;;;5.30;5.03;;;22.70;47.10;;;;;;5037793;28;20275;-78
2023/06/11 03:08:42;;;;;;;5.63;5.33;;;22.80;47.10;;;;;;5039495;28;20673;-78
2023/06/11 03:11:07;;;;;;;4.93;4.63;;;22.80;47.10;;;;;;5038527;28;20218;-78
2023/06/11 03:13:33;;;;;;;5.10;4.70;;;22.80;47.10;;;;;;5036723;28;20227;-77
2023/06/11 03:15:59;;;;;;;4.67;4.47;;;22.80;47.10;;;;;;5039534;28;20234;-78
2023/06/11 03:18:24;;;;;;;4.93;4.73;;;22.70;47.10;;;;;;5033352;28;20234;-78
2023/06/11 03:20:50;;;;;;;5.33;5.10;;;22.80;47.10;;;;;;5039898;28;20632;-78
2023/06/11 03:23:15;;;;;;;5.33;5.03;;;22.80;47.10;;;;;;5041733;28;20626;-78
2023/06/11 03:25:42;;;;;;;4.77;4.57;;;22.80;47.10;;;;;;5038244;28;20229;-78
2023/06/11 03:28:08;;;;;;;5.17;4.97;;;22.80;47.10;;;;;;5033879;28;20265;-78
2023/06/11 03:30:33;;;;;;;4.80;4.60;;;22.70;47.10;;;;;;5039039;28;20459;-78
2023/06/11 03:32:59;;;;;;;5.10;4.87;;;22.70;47.10;;;;;;5041216;28;20473;-77
2023/06/11 03:35:24;;;;;;;5.07;4.80;;;22.80;47.10;;;;;;5038228;28;20308;-78
2023/06/11 03:37:50;;;;;;;5.17;4.93;;;22.70;47.10;;;;;;5033462;28;20235;-71
2023/06/11 03:40:15;;;;;;;4.80;4.60;;;22.80;47.10;;;;;;5036008;28;20226;-78
2023/06/11 03:42:41;;;;;;;5.43;5.13;;;22.80;47.10;;;;;;5040307;28;20218;-78
2023/06/11 03:45:07;;;;;;;4.60;4.40;;;22.80;47.10;;;;;;5038358;28;20225;-78
2023/06/11 03:47:32;;;;;;;5.20;4.70;;;22.80;47.10;;;;;;5039834;28;20246;-78
2023/06/11 03:49:58;;;;;;;4.50;4.30;;;22.80;47.10;;;;;;5038595;28;20341;-78
2023/06/11 03:52:24;;;;;;;5.03;4.83;;;22.80;47.10;;;;;;5040466;28;20306;-77
2023/06/11 03:54:49;;;;;;;4.93;4.73;;;22.80;47.10;;;;;;5032286;28;20222;-78
2023/06/11 03:57:17;;;;;;;4.80;4.60;;;22.80;47.10;;;;;;5037085;28;20291;-78
2023/06/11 03:59:43;;;;;;;5.27;5.07;;;22.80;47.10;;;;;;5039862;28;20244;-78
2023/06/11 04:02:08;;;;;;;5.00;4.80;;;22.80;47.10;;;;;;5038852;28;20546;-78
2023/06/11 04:04:34;;;;;;;4.83;4.63;;;22.80;47.10;;;;;;5040402;28;20279;-78
2023/06/11 04:07:00;;;;;;;5.10;4.90;;;22.80;47.10;;;;;;5032463;28;20226;-78
2023/06/11 04:09:25;;;;;;;5.53;5.13;;;22.80;47.10;;;;;;5055532;28;20309;-78
2023/06/11 04:11:51;;;;;;;5.07;4.87;;;22.80;47.10;;;;;;5033511;28;20222;-77
2023/06/11 04:14:16;;;;;;;5.20;5.00;;;22.80;47.20;;;;;;5052864;28;20225;-78
2023/06/11 04:16:42;;;;;;;5.70;5.40;;;22.80;47.10;;;;;;5037113;28;20351;-78
2023/06/11 04:19:07;;;;;;;5.03;4.83;;;22.80;47.10;;;;;;5039480;28;20230;-78
2023/06/11 04:21:33;;;;;;;4.93;4.63;;;22.80;47.10;;;;;;5035599;28;20226;-78
2023/06/11 04:23:59;;;;;;;4.90;4.70;;;22.80;47.10;;;;;;5041573;28;20233;-78
2023/06/11 04:26:25;;;;;;;4.97;4.77;;;22.80;47.10;;;;;;5034488;28;21406;-77
2023/06/11 04:28:52;;;;;;;4.60;4.40;;;22.80;47.20;;;;;;5041554;28;20416;-77
2023/06/11 04:31:18;;;;;;;5.80;5.50;;;22.80;47.10;;;;;;5036534;28;20858;-78
2023/06/11 04:33:45;;;;;;;4.67;4.47;;;22.80;47.10;;;;;;5041459;28;20538;-78
2023/06/11 04:36:11;;;;;;;5.23;5.03;;;22.80;47.10;;;;;;5032634;28;20705;-78
2023/06/11 04:38:37;;;;;;;5.50;5.30;;;22.80;47.10;;;;;;5028086;28;20464;-78
2023/06/11 04:41:11;;;;;;;5.43;5.07;;;22.80;47.20;;;;;;5019243;28;20502;-77
2023/06/11 04:43:36;;;;;;;5.17;4.97;;;22.80;47.10;;;;;;5019594;28;20460;-78
2023/06/11 04:46:04;;;;;;;5.37;5.07;;;22.80;47.10;;;;;;5036765;28;20477;-77
2023/06/11 04:48:31;;;;;;;5.03;4.80;;;22.80;47.10;;;;;;5039099;28;20228;-76
2023/06/11 04:50:59;;;;;;;4.93;4.73;;;22.80;47.10;;;;;;5034966;28;20455;-77
2023/06/11 04:53:27;;;;;;;5.40;5.10;;;22.80;47.10;;;;;;5037801;28;20462;-76
2023/06/11 04:55:57;;;;;;;5.07;4.87;;;22.90;47.20;;;;;;5033800;28;20455;-76
2023/06/11 04:58:26;;;;;;;5.50;5.30;;;22.80;47.10;;;;;;5029778;28;20821;-77
2023/06/11 05:00:56;;;;;;;5.13;4.93;;;22.80;47.10;;;;;;5037311;28;20485;-76
2023/06/11 05:03:24;;;;;;;5.07;4.77;;;22.90;47.20;;;;;;5037400;28;20665;-77
2023/06/11 05:05:51;;;;;;;5.30;5.00;;;22.80;47.10;;;;;;5038563;28;20460;-77
2023/06/11 05:08:24;;;;;;;5.20;5.00;;;22.80;47.10;;;;;;5031925;28;21318;-77
2023/06/11 05:10:51;;;;;;;5.00;4.80;;;22.90;47.20;;;;;;5036043;28;20470;-77
2023/06/11 05:13:22;;;;;;;4.93;4.73;;;22.80;47.10;;;;;;5036537;28;20787;-76
2023/06/11 05:15:48;;;;;;;4.80;4.60;;;22.90;47.20;;;;;;5037361;28;20487;-76
2023/06/11 05:18:14;;;;;;;5.20;5.00;;;22.90;47.20;;;;;;5031336;28;20462;-76
2023/06/11 05:20:40;;;;;;;5.00;4.80;;;22.90;47.20;;;;;;5033517;28;20467;-76
2023/06/11 05:23:05;;;;;;;5.90;5.60;;;22.90;47.20;;;;;;5034159;28;20888;-76
2023/06/11 05:25:31;;;;;;;4.97;4.67;;;22.90;47.20;;;;;;5033038;28;20233;-76
2023/06/11 05:28:01;;;;;;;4.87;4.67;;;22.90;47.20;;;;;;5036821;28;20226;-76
2023/06/11 05:30:29;;;;;;;5.10;4.90;;;22.90;47.30;;;;;;5035951;28;20701;-77
2023/06/11 05:32:56;;;;;;;5.37;5.03;;;22.90;47.20;;;;;;5036125;28;20451;-77
2023/06/11 05:35:25;;;;;;;5.27;4.97;;;22.90;47.20;;;;;;5037790;28;20462;-77
2023/06/11 05:37:51;;;;;;;4.60;4.40;;;22.90;47.20;;;;;;5036495;28;20775;-75
2023/06/11 05:40:17;;;;;;;5.33;5.10;;;22.90;47.30;;;;;;5040450;28;20479;-77
2023/06/11 05:42:43;;;;;;;4.93;4.73;;;22.90;47.20;;;;;;5035470;28;20463;-77
2023/06/11 05:45:08;;;;;;;4.90;4.70;;;22.90;47.30;;;;;;5040736;28;20584;-77
2023/06/11 05:47:34;;;;;;;5.87;5.57;;;22.90;47.20;;;;;;5039845;28;20696;-77
2023/06/11 05:50:00;;;;;;;5.47;5.10;;;22.90;47.20;;;;;;5041363;28;20304;-77
2023/06/11 05:52:26;;;;;;;5.00;4.80;;;22.90;47.20;;;;;;5046569;28;21106;-77
2023/06/11 05:54:51;;;;;;;4.83;4.63;;;22.90;47.20;;;;;;5039996;28;20504;-76
2023/06/11 05:57:22;;;;;;;5.50;5.30;;;22.90;47.20;;;;;;5034347;28;20240;-78
2023/06/11 05:59:47;;;;;;;5.30;5.03;;;22.90;47.20;;;;;;5034668;28;20325;-78
2023/06/11 06:02:13;;;;;;;5.10;4.83;;;22.90;47.20;;;;;;5040100;28;20447;-77
2023/06/11 06:04:38;;;;;;;4.80;4.60;;;22.90;47.20;;;;;;5041703;28;20210;-77
2023/06/11 06:07:04;;;;;;;5.53;5.13;;;22.90;47.20;;;;;;5036294;28;20750;-77
2023/06/11 06:09:30;;;;;;;5.23;5.03;;;22.90;47.20;;;;;;5039980;28;20223;-78
2023/06/11 06:11:56;;;;;;;5.60;5.30;;;22.90;47.20;;;;;;5041382;28;20221;-77
2023/06/11 06:14:21;;;;;;;4.83;4.63;;;22.90;47.20;;;;;;5040003;28;20452;-78
2023/06/11 06:16:47;;;;;;;4.87;4.67;;;22.90;48.00;;;;;;5039512;28;20759;-78
2023/06/11 06:19:12;;;;;;;4.80;4.60;;;22.90;47.20;;;;;;5034430;28;20222;-78
2023/06/11 06:21:38;;;;;;;5.43;5.20;;;22.90;47.20;;;;;;5044019;28;20218;-77
2023/06/11 06:24:04;;;;;;;4.60;4.40;;;22.90;47.20;;;;;;5040949;28;21594;-77
2023/06/11 06:26:30;;;;;;;4.83;4.63;;;22.90;47.20;;;;;;5045527;28;20221;-78
2023/06/11 06:28:56;;;;;;;4.87;4.67;;;22.90;47.20;;;;;;5038173;28;20572;-77
2023/06/11 06:31:24;;;;;;;4.90;4.70;;;22.90;47.30;;;;;;5041264;28;20451;-77
2023/06/11 06:33:50;;;;;;;4.80;4.60;;;22.90;47.20;;;;;;5035042;28;20556;-78
2023/06/11 06:36:20;;;;;;;5.17;4.90;;;22.90;47.20;;;;;;5038860;28;21331;-78
2023/06/11 06:38:46;;;;;;;5.37;5.10;;;22.90;47.20;;;;;;5038333;28;20948;-77
2023/06/11 06:41:11;;;;;;;4.90;4.70;;;22.90;47.20;;;;;;5036563;28;20455;-77
2023/06/11 06:43:37;;;;;;;5.67;5.43;;;22.90;47.20;;;;;;5040837;28;20456;-77
2023/06/11 06:46:03;;;;;;;4.87;4.67;;;22.90;47.20;;;;;;5042201;28;20796;-77
2023/06/11 06:48:29;;;;;;;4.60;4.40;;;22.90;47.20;;;;;;5038563;28;20226;-78
2023/06/11 06:50:54;;;;;;;5.20;5.00;;;22.90;47.20;;;;;;5032277;28;20225;-77
2023/06/11 06:53:20;;;;;;;4.93;4.73;;;22.90;47.20;;;;;;5042091;28;20681;-77
2023/06/11 06:55:46;;;;;;;4.47;4.27;;;22.90;47.30;;;;;;5037286;28;20600;-77
2023/06/11 06:58:12;;;;;;;4.90;4.70;;;22.90;47.30;;;;;;5038166;28;20749;-77
2023/06/11 07:00:37;;;;;;;5.27;5.03;;;22.90;47.20;;;;;;5042320;28;20220;-77
2023/06/11 07:03:06;;;;;;;4.60;4.40;;;22.90;47.20;;;;;;5034797;28;20385;-77
2023/06/11 07:05:32;;;;;;;4.83;4.63;;;22.90;47.20;;;;;;5033526;28;20258;-77
2023/06/11 07:07:57;;;;;;;4.57;4.37;;;22.90;47.20;;;;;;5041108;28;21042;-77
2023/06/11 07:10:23;;;;;;;5.43;5.10;;;22.90;47.20;;;;;;5040012;28;20296;-77
2023/06/11 07:12:48;;;;;;;4.77;4.57;;;22.90;47.20;;;;;;5038799;28;20690;-77
2023/06/11 07:15:14;;;;;;;5.20;5.00;;;22.90;47.20;;;;;;5038573;28;20698;-77
2023/06/11 07:17:39;;;;;;;4.83;4.63;;;22.90;47.20;;;;;;5038835;28;20222;-77
2023/06/11 07:20:07;;;;;;;4.70;4.50;;;22.90;47.20;;;;;;5038613;28;20233;-77
2023/06/11 07:22:32;;;;;;;4.90;4.70;;;22.90;47.20;;;;;;5029779;28;20219;-79
2023/06/11 07:25:00;;;;;;;4.70;4.50;;;22.90;47.20;;;;;;5032103;28;20465;-77
2023/06/11 07:27:26;;;;;;;4.87;4.67;;;23.00;47.30;;;;;;5033681;28;20222;-79
2023/06/11 07:29:52;;;;;;;5.20;5.00;;;22.90;47.20;;;;;;5027490;28;20484;-73
2023/06/11 07:32:17;;;;;;;4.63;4.43;;;23.00;47.30;;;;;;5040431;28;20222;-77
2023/06/11 07:34:43;;;;;;;4.80;4.60;;;22.90;47.20;;;;;;5039590;28;20233;-77
2023/06/11 07:37:08;;;;;;;4.70;4.50;;;23.00;47.30;;;;;;5039819;28;20259;-80
2023/06/11 07:39:34;;;;;;;4.77;4.57;;;23.00;47.30;;;;;;5036185;28;20272;-80
2023/06/11 07:42:00;;;;;;;5.23;4.93;;;23.00;47.30;;;;;;5039819;28;20322;-79
2023/06/11 07:44:26;;;;;;;5.10;4.90;;;23.00;47.30;;;;;;5019631;28;20233;-79
2023/06/11 07:46:51;;;;;;;4.80;4.60;;;23.00;47.30;;;;;;5017594;28;20226;-79
2023/06/11 07:49:17;;;;;;;4.87;4.67;;;23.00;47.30;;;;;;5020944;28;20222;-78
2023/06/11 07:51:44;;;;;;;4.60;4.40;;;23.00;47.30;;;;;;5027497;28;20305;-78
2023/06/11 07:54:11;;;;;;;5.03;4.83;;;23.00;47.30;;;;;;5038154;28;20587;-78
2023/06/11 07:56:37;;;;;;;4.77;4.57;;;23.00;47.30;;;;;;5037342;28;20544;-78
2023/06/11 07:59:03;;;;;;;4.20;4.00;;;23.00;48.10;;;;;;5035216;28;20471;-77
2023/06/11 08:01:28;;;;;;;4.70;4.50;;;23.00;47.30;;;;;;5029984;28;20221;-78
2023/06/11 08:03:54;;;;;;;4.43;4.23;;;23.00;47.30;;;;;;5038646;28;20249;-78
2023/06/11 08:06:20;;;;;;;5.00;4.80;;;23.00;47.30;;;;;;5041911;28;20265;-79
2023/06/11 08:08:47;;;;;;;4.67;4.47;;;23.00;47.30;;;;;;5036030;28;20220;-79
2023/06/11 08:11:13;;;;;;;4.70;4.50;;;23.00;47.30;;;;;;5036313;28;20873;-79
2023/06/11 08:13:40;;;;;;;5.00;4.77;;;23.00;47.30;;;;;;5037475;28;20475;-79
2023/06/11 08:16:07;;;;;;;4.80;4.60;;;23.00;47.30;;;;;;5038066;28;20226;-80
2023/06/11 08:18:33;;;;;;;4.87;4.67;;;23.00;47.30;;;;;;5041234;28;20466;-80
2023/06/11 08:21:00;;;;;;;4.70;4.50;;;23.00;47.30;;;;;;5036052;28;20459;-80
2023/06/11 08:23:25;;;;;;;5.10;4.80;;;23.00;47.30;;;;;;5034814;28;20471;-80
2023/06/11 08:25:51;;;;;;;4.90;4.60;;;23.00;47.30;;;;;;5031824;28;20456;-76
2023/06/11 08:28:16;;;;;;;4.90;4.50;;;23.00;47.30;;;;;;5033694;28;20311;-78
2023/06/11 08:30:42;;;;;;;4.50;4.30;;;23.00;47.30;;;;;;5035948;28;20392;-72
2023/06/11 08:33:08;;;;;;;5.00;4.80;;;23.00;47.30;;;;;;5033459;28;20227;-76
2023/06/11 08:35:34;;;;;;;5.63;5.20;;;23.00;47.30;;;;;;5034769;28;20229;-72
2023/06/11 08:38:00;;;;;;;4.87;4.60;;;23.00;47.30;;;;;;5032684;28;20456;-71
2023/06/11 08:40:26;;;;;;;4.97;4.67;;;23.00;47.30;;;;;;5030019;28;20618;-73
2023/06/11 08:42:52;;;;;;;5.67;5.30;;;23.00;47.30;;;;;;5035312;28;20218;-71
2023/06/11 08:45:18;;;;;;;5.80;5.30;;;23.00;47.30;;;;;;5033645;28;20458;-71
2023/06/11 08:47:59;;;;;;;5.87;5.37;;;23.00;47.30;;;;;;5032982;28;20345;-71
2023/06/11 08:50:24;;;;;;;9.73;6.33;;;23.00;47.30;;;;;;5026061;28;20241;-71
2023/06/11 08:52:51;;;;;;;10.83;5.40;;;23.10;47.40;;;;;;5031248;28;20459;-75
2023/06/11 08:55:17;;;;;;;5.37;4.87;;;23.10;47.40;;;;;;5032730;28;20242;-75
2023/06/11 08:57:43;;;;;;;10.50;6.53;;;23.10;47.40;;;;;;5028393;28;23360;-75
2023/06/11 09:00:10;;;;;;;7.20;5.20;;;23.10;47.40;;;;;;5034647;28;20223;-75
2023/06/11 09:02:36;;;;;;;5.60;5.17;;;23.10;47.40;;;;;;5032749;28;20455;-74
2023/06/11 09:05:03;;;;;;;9.43;5.80;;;23.10;47.40;;;;;;5027341;28;20455;-73
2023/06/11 09:07:29;;;;;;;7.20;5.90;;;23.10;47.40;;;;;;5031660;28;20443;-73
2023/06/11 09:10:08;;;;;;;7.20;5.60;;;23.10;47.50;;;;;;5029482;28;20808;-75
2023/06/11 09:12:34;;;;;;;9.00;5.87;;;23.10;47.40;;;;;;5031761;28;20221;-73
2023/06/11 09:15:00;;;;;;;7.20;5.30;;;23.10;47.40;;;;;;5022768;28;20505;-73
2023/06/11 09:17:33;;;;;;;6.10;5.60;;;23.10;47.50;;;;;;5030863;28;20785;-73
2023/06/11 09:20:07;;;;;;;11.40;5.77;;;23.10;47.40;;;;;;5025942;28;21040;-79
2023/06/11 09:22:34;;;;;;;6.00;5.50;;;23.10;47.40;;;;;;5033601;28;20474;-75
2023/06/11 09:25:16;;;;;;;6.50;5.70;;;23.10;47.40;;;;;;5034642;28;20791;-75
2023/06/11 09:27:44;;;;;;;5.73;5.20;;;23.10;47.40;;;;;;5033799;28;20440;-74
2023/06/11 09:30:11;;;;;;;8.30;5.00;;;23.10;47.40;;;;;;5031655;28;20484;-74
2023/06/11 09:32:41;;;;;;;8.00;5.20;;;23.10;47.40;;;;;;5030122;28;20467;-74
2023/06/11 09:35:08;;;;;;;6.40;5.77;;;23.10;47.50;;;;;;5033028;28;20450;-75
2023/06/11 09:37:40;;;;;;;5.80;5.10;;;23.10;47.40;;;;;;5034522;28;20469;-74
2023/06/11 09:40:08;;;;;;;5.30;4.90;;;23.10;47.40;;;;;;5035023;28;20454;-75
2023/06/11 09:42:34;;;;;;;11.90;5.43;;;23.10;47.40;;;;;;5023050;28;20451;-74
2023/06/11 09:45:01;;;;;;;5.83;5.27;;;23.10;47.40;;;;;;5030946;28;20460;-73
2023/06/11 09:47:31;;;;;;;5.70;5.20;;;23.10;47.50;;;;;;5025435;28;20460;-73
2023/06/11 09:49:58;;;;;;;5.67;5.27;;;23.10;47.40;;;;;;5029149;28;21043;-72
2023/06/11 09:52:26;;;;;;;5.37;5.00;;;23.10;47.40;;;;;;5030770;28;20453;-73
2023/06/11 09:54:52;;;;;;;4.80;4.43;;;23.10;47.40;;;;;;5030069;28;20462;-74
2023/06/11 09:57:18;;;;;;;5.67;5.27;;;23.10;47.40;;;;;;5031071;28;20538;-73
2023/06/11 09:59:45;;;;;;;5.73;5.20;;;23.10;47.40;;;;;;5034885;28;21060;-75
2023/06/11 10:02:11;;;;;;;5.13;4.80;;;23.10;47.40;;;;;;5031064;28;20226;-74
2023/06/11 10:04:37;;;;;;;5.77;5.47;;;23.10;47.40;;;;;;5030634;28;20806;-74
2023/06/11 10:07:05;;;;;;;5.00;4.80;;;23.10;47.50;;;;;;5024665;28;20470;-73
2023/06/11 10:09:32;;;;;;;6.50;5.00;;;23.10;47.40;;;;;;5035327;28;20249;-73
2023/06/11 10:11:58;;;;;;;6.53;4.90;;;23.10;47.40;;;;;;5033765;28;20544;-73
2023/06/11 10:14:24;;;;;;;5.33;5.03;;;23.10;47.50;;;;;;5033899;28;20517;-73
2023/06/11 10:16:54;;;;;;;5.20;4.90;;;23.10;47.40;;;;;;5032932;28;21001;-73
2023/06/11 10:19:22;;;;;;;4.87;4.57;;;23.10;47.40;;;;;;5033985;28;20578;-75
2023/06/11 10:21:50;;;;;;;5.63;5.33;;;23.10;47.40;;;;;;5036432;28;20486;-74
2023/06/11 10:24:26;;;;;;;5.40;5.10;;;23.10;47.40;;;;;;5031691;28;20475;-73
2023/06/11 10:27:07;;;;;;;5.00;4.80;;;23.20;47.50;;;;;;5034557;28;20458;-75
2023/06/11 10:29:37;;;;;;;5.57;5.17;;;23.10;47.40;;;;;;5034147;28;22450;-73
2023/06/11 10:32:03;;;;;;;5.07;4.83;;;23.20;47.50;;;;;;5022992;28;20462;-76
2023/06/11 10:34:39;;;;;;;5.03;4.80;;;23.20;47.50;;;;;;5025671;28;20486;-76
2023/06/11 10:37:06;;;;;;;5.00;4.70;;;23.20;47.50;;;;;;5033441;28;20244;-75
2023/06/11 10:39:31;;;;;;;5.10;4.83;;;23.20;47.50;;;;;;5032643;28;20577;-75
2023/06/11 10:42:01;;;;;;;5.40;4.67;;;23.20;47.50;;;;;;5039521;28;20459;-75
2023/06/11 10:44:29;;;;;;;5.73;5.33;;;23.20;47.50;;;;;;5036351;28;20745;-76
2023/06/11 10:46:58;;;;;;;5.27;4.97;;;23.20;47.50;;;;;;5038551;28;20849;-76
2023/06/11 10:49:27;;;;;;;5.17;4.80;;;23.20;47.50;;;;;;5033759;28;20456;-76
2023/06/11 10:51:54;;;;;;;5.30;5.07;;;23.20;47.50;;;;;;5038556;28;20459;-75
2023/06/11 10:54:25;;;;;;;5.33;5.10;;;23.20;47.50;;;;;;5038531;28;20994;-76
2023/06/11 10:56:51;;;;;;;4.93;4.73;;;23.20;47.50;;;;;;5038399;28;20463;-76
2023/06/11 10:59:18;;;;;;;5.20;4.90;;;23.20;47.50;;;;;;5039586;28;20908;-70
2023/06/11 11:01:43;;;;;;;4.90;4.70;;;23.20;47.50;;;;;;5035312;28;20222;-75
2023/06/11 11:04:09;;;;;;;4.70;4.40;;;23.20;47.50;;;;;;5038018;28;20478;-76
2023/06/11 11:06:36;;;;;;;5.37;4.97;;;23.20;47.50;;;;;;5035880;28;20431;-75
2023/06/11 11:09:02;;;;;;;5.00;4.80;;;23.20;47.50;;;;;;5037405;28;20221;-75
2023/06/11 11:11:28;;;;;;;5.20;5.00;;;23.20;47.50;;;;;;5038250;28;20498;-74
2023/06/11 11:13:57;;;;;;;4.60;4.40;;;23.20;47.50;;;;;;5038099;28;21026;-74
2023/06/11 11:16:23;;;;;;;4.60;4.30;;;23.20;47.50;;;;;;5035960;28;20214;-75
2023/06/11 11:18:49;;;;;;;5.07;4.87;;;23.20;47.50;;;;;;5039353;28;20513;-75
2023/06/11 11:21:15;;;;;;;5.03;4.73;;;23.20;47.50;;;;;;5039775;28;20222;-75
2023/06/11 11:23:42;;;;;;;4.50;4.30;;;23.20;47.50;;;;;;5042142;28;20482;-75
2023/06/11 11:26:07;;;;;;;5.90;5.33;;;23.30;47.60;;;;;;5037151;28;20928;-75
2023/06/11 11:28:34;;;;;;;10.30;5.83;;;23.30;47.10;;;;;;5027388;28;21045;-73
2023/06/11 11:31:00;;;;;;;29.93;6.70;;;23.30;46.50;;;;;;5036231;28;20746;-74
2023/06/11 11:33:27;;;;;;;5.60;5.10;;;23.30;46.00;;;;;;5034982;28;20535;-74
2023/06/11 11:35:56;;;;;;;6.27;5.17;;;23.30;45.50;;;;;;5033968;28;20507;-75
2023/06/11 11:38:22;;;;;;;5.97;5.50;;;23.40;45.20;;;;;;5039158;28;20799;-73
2023/06/11 11:40:57;;;;;;;5.90;5.40;;;23.40;44.90;;;;;;5035874;28;20469;-73
2023/06/11 11:43:23;;;;;;;6.30;5.70;;;23.40;44.60;;;;;;5034339;28;20576;-71
2023/06/11 11:45:49;;;;;;;8.47;4.73;;;23.40;44.30;;;;;;5027845;28;20478;-73
2023/06/11 11:48:16;;;;;;;6.53;5.80;;;23.40;44.40;;;;;;5033657;28;20232;-77
2023/06/11 11:50:44;;;;;;;5.87;5.37;;;23.40;44.30;;;;;;5035722;28;20471;-73
2023/06/11 11:53:13;;;;;;;5.40;5.10;;;23.40;44.20;;;;;;5038226;28;20495;-72
2023/06/11 11:55:44;;;;;;;5.80;5.30;;;23.40;44.30;;;;;;5035812;28;20483;-73
2023/06/11 11:58:10;;;;;;;5.60;5.23;;;23.40;44.10;;;;;;5036856;28;20463;-71
2023/06/11 12:00:39;;;;;;;6.27;5.57;;;23.40;44.00;;;;;;5039121;28;20829;-73
2023/06/11 12:03:10;;;;;;;5.30;5.00;;;23.40;43.80;;;;;;5037523;28;21005;-73
2023/06/11 12:05:37;;;;;;;5.13;4.70;;;23.40;43.70;;;;;;5035043;28;20538;-74
2023/06/11 12:08:06;;;;;;;5.23;5.00;;;23.40;43.90;;;;;;5033189;28;20946;-77
2023/06/11 12:10:32;;;;;;;6.00;5.50;;;23.40;43.70;;;;;;5029485;28;20460;-76
2023/06/11 12:13:00;;;;;;;5.40;5.20;;;23.40;43.60;;;;;;5030576;28;20999;-74
2023/06/11 12:15:26;;;;;;;6.60;5.43;;;23.40;43.50;;;;;;5032510;28;20231;-74
2023/06/11 12:17:52;;;;;;;5.60;5.30;;;23.50;43.40;;;;;;5037685;28;20978;-75
2023/06/11 12:20:18;;;;;;;5.90;5.50;;;23.50;43.30;;;;;;5030342;28;20463;-74
2023/06/11 12:22:43;;;;;;;5.10;4.80;;;23.50;43.20;;;;;;5032242;28;20236;-73
2023/06/11 12:25:09;;;;;;;5.73;5.33;;;23.50;43.30;;;;;;5034719;28;20458;-73
2023/06/11 12:27:36;;;;;;;5.80;5.40;;;23.40;43.30;;;;;;5037092;28;20661;-73
2023/06/11 12:30:03;;;;;;;6.10;5.60;;;23.50;43.40;;;;;;5035478;28;20275;-73
2023/06/11 12:32:29;;;;;;;5.80;5.50;;;23.40;43.10;;;;;;5035789;28;20448;-73
2023/06/11 12:34:55;;;;;;;4.90;4.70;;;23.50;43.10;;;;;;5032205;28;20950;-73
2023/06/11 12:37:21;;;;;;;4.50;4.30;;;23.50;43.30;;;;;;5033380;28;20537;-73
2023/06/11 12:39:46;;;;;;;4.97;4.77;;;23.40;43.60;;;;;;5038562;28;20230;-73
2023/06/11 12:42:16;;;;;;;5.13;4.83;;;23.40;43.70;;;;;;5038228;28;20347;-73
2023/06/11 12:44:42;;;;;;;3.90;3.70;;;23.40;43.90;;;;;;5033684;28;20259;-73